Oxford, PA (19363)

9:12 AM EDT on September 05, 2015 (GMT -0400)
APRSWXNET | | Change Station
CLOSE
Current Station
Personal Weather Station
Location: Lincoln University, PA
Elevation: 459 ft
Nearby Weather Stations

Elev 459 ft 39.77 °N, 75.93 °W | Updated 28 minutes ago

Overcast
Overcast
69 °F
Feels Like 69 °F
N
3
Wind Variable Wind from WNW
Gusts 6.0 mph

Today
High -- | Low -- °F
--% Chance of Precip.
Yesterday
High -- | Low -- °F
Precip. -- in
6:35 AM 7:29 PM
Waning Gibbous, 49% visible
Pressure 30.27 in
Visibility 10.0 miles
Clouds Overcast 1500 ft
Dew Point 65 °F
Humidity 88%
Rainfall in
Snow Depth Not available.
UV 1 out of 12
Pollen 10.20 out of 12
Air Quality Not available.
Flu Activity Not available.
METAR KMQS 051255Z AUTO 08004KT 10SM OVC015 21/18 A3027 RMK AO2
Pressure 30.27 in
Visibility 10.0 miles
Clouds Overcast 1500 ft
Dew Point 65 °F
Humidity 88%
Rainfall in
Snow Depth Not available.
UV 1 out of 12
Pollen 10.20 out of 12
Air Quality Not available.
Flu Activity Not available.
METAR KMQS 051255Z AUTO 08004KT 10SM OVC015 21/18 A3027 RMK AO2

10-Day Weather Forecast

×

Almanac

Astronomy

Sep. 05, 2015 Rise Set
Actual Time
Civil Twilight
Nautical Twilight
Astronomical Twilight
Moon
Length of Visible Light
Length of Day
Tomorrow will be .
, % of the Moon is Illuminated

Today's Extremes

State Highs State Lows

Community

WunderPhotos

Upload Photos

1,852,454 photos uploaded!

WunderBlogs® & News

Nearby

Air Quality

  Air Quality AQ Index Pollutant
Not available.

Snow Depth

Station Depth Elevation

Earthquake Activity

City Distance Mag. Time & Date
Minimum magnitude displayed is 2.5.

Coastal Water Temperatures

Place Temperature

Stations

Nearby Weather Stations

Station Location Temp. Windchill Dew Point Humidity Wind Precip. Elev Updated Type